createdAt,value
2022-08-18T00:03:56.551Z,13.40
2022-08-18T00:06:30.189Z,14.90
2022-08-18T00:09:01.127Z,16.33
2022-08-18T00:11:41.353Z,15.70
2022-08-18T00:14:21.243Z,14.45
2022-08-18T00:16:52.544Z,14.75
2022-08-18T00:19:24.751Z,16.50
2022-08-18T00:22:15.062Z,13.70
2022-08-18T00:24:47.814Z,14.77
2022-08-18T00:27:23.130Z,14.60
2022-08-18T00:29:52.846Z,16.38
2022-08-18T00:32:24.047Z,15.85
2022-08-18T00:34:53.184Z,14.80
2022-08-18T00:37:24.118Z,16.42
2022-08-18T00:39:53.821Z,14.90
2022-08-18T00:42:27.520Z,15.15
2022-08-18T00:45:02.524Z,16.85
2022-08-18T00:47:41.981Z,14.48
2022-08-18T00:50:20.559Z,15.30
2022-08-18T00:52:57.706Z,15.40
2022-08-18T00:55:27.203Z,14.70
2022-08-18T00:58:02.340Z,14.77
2022-08-18T01:00:30.724Z,15.68
2022-08-18T01:03:05.373Z,15.02
2022-08-18T01:05:40.867Z,15.57
2022-08-18T01:08:15.263Z,16.65
2022-08-18T01:10:46.624Z,16.30
2022-08-18T01:13:14.844Z,16.10
2022-08-18T01:15:43.066Z,16.13
2022-08-18T01:18:31.546Z,15.70
2022-08-18T01:21:26.590Z,16.73
2022-08-18T01:23:57.228Z,17.33
2022-08-18T01:26:27.034Z,17.23
2022-08-18T01:28:55.325Z,18.35
2022-08-18T01:31:38.064Z,17.92
2022-08-18T01:34:07.527Z,16.70
2022-08-18T01:36:37.443Z,16.25
2022-08-18T01:39:13.069Z,17.77
2022-08-18T01:41:42.464Z,17.75
2022-08-18T01:44:11.565Z,16.63
2022-08-18T01:46:42.878Z,18.33
2022-08-18T01:49:13.302Z,16.13
2022-08-18T01:51:42.615Z,16.75
2022-08-18T01:54:15.980Z,16.98
2022-08-18T01:56:44.279Z,17.90
2022-08-18T01:59:14.712Z,16.88
2022-08-18T02:01:48.787Z,16.17
2022-08-18T02:04:35.560Z,18.02
2022-08-18T02:07:08.800Z,16.67
2022-08-18T02:09:41.257Z,18.38
2022-08-18T02:12:10.038Z,16.88
2022-08-18T02:14:39.292Z,15.63
2022-08-18T02:17:11.049Z,17.58
2022-08-18T02:19:42.601Z,16.67
2022-08-18T02:22:15.061Z,17.48
2022-08-18T02:24:45.107Z,17.90
2022-08-18T02:27:15.791Z,17.00
2022-08-18T02:29:44.123Z,17.65
2022-08-18T02:32:12.345Z,17.23
2022-08-18T02:34:42.754Z,17.67
2022-08-18T02:37:15.090Z,16.73
2022-08-18T02:39:45.336Z,17.77
2022-08-18T02:42:14.664Z,17.35
2022-08-18T02:44:42.977Z,16.50
2022-08-18T02:47:11.239Z,16.45
2022-08-18T02:49:39.609Z,17.55
2022-08-18T02:52:08.316Z,16.20
2022-08-18T02:54:36.609Z,15.88
2022-08-18T02:57:10.695Z,17.25
2022-08-18T02:59:40.513Z,18.27
2022-08-18T03:02:11.372Z,17.30
2022-08-18T03:04:40.325Z,16.70
2022-08-18T03:07:09.485Z,17.70
2022-08-18T03:09:38.062Z,15.57
2022-08-18T03:12:08.794Z,16.33
2022-08-18T03:14:40.058Z,18.02
2022-08-18T03:17:10.477Z,15.60
2022-08-18T03:19:38.883Z,17.52
2022-08-18T03:22:27.551Z,16.10
2022-08-18T03:24:57.790Z,15.65
2022-08-18T03:27:27.825Z,16.15
2022-08-18T03:29:56.533Z,15.20
2022-08-18T03:34:55.191Z,15.43
2022-08-18T03:37:23.402Z,15.05
2022-08-18T03:39:52.872Z,16.13
2022-08-18T03:42:21.216Z,15.23
2022-08-18T03:44:51.084Z,14.68
2022-08-18T03:47:19.257Z,15.10
2022-08-18T03:49:48.119Z,15.63
2022-08-18T03:52:16.910Z,14.55
2022-08-18T03:54:45.068Z,14.98
2022-08-18T03:57:14.108Z,14.98
2022-08-18T03:59:43.610Z,13.82
2022-08-18T04:02:13.622Z,13.27
2022-08-18T04:04:43.108Z,13.75
2022-08-18T04:07:14.392Z,14.70
2022-08-18T04:09:43.118Z,14.13
2022-08-18T04:12:16.624Z,13.85
2022-08-18T04:14:49.632Z,15.18
2022-08-18T04:17:24.829Z,14.75
2022-08-18T04:19:53.454Z,14.73
2022-08-18T04:22:21.729Z,14.27
2022-08-18T04:24:51.459Z,14.88
2022-08-18T04:27:20.874Z,13.63
2022-08-18T04:29:49.709Z,15.27
2022-08-18T04:32:19.420Z,14.82
2022-08-18T04:34:47.648Z,15.07
2022-08-18T04:37:16.511Z,14.25
2022-08-18T04:39:45.535Z,15.48
2022-08-18T04:42:13.942Z,15.38
2022-08-18T04:44:43.880Z,14.68
2022-08-18T04:47:13.350Z,15.00
2022-08-18T04:49:44.559Z,14.45
2022-08-18T04:52:39.989Z,15.32
2022-08-18T04:55:11.240Z,15.57
2022-08-18T04:57:42.532Z,15.07
2022-08-18T05:00:13.088Z,14.93
2022-08-18T05:02:41.513Z,16.45
2022-08-18T05:05:11.649Z,14.40
2022-08-18T05:07:46.692Z,15.13
2022-08-18T05:10:17.770Z,15.05
2022-08-18T05:12:49.133Z,15.02
2022-08-18T05:15:18.942Z,15.55
2022-08-18T05:17:48.110Z,15.63
2022-08-18T05:20:21.278Z,15.15
2022-08-18T05:22:49.586Z,15.27
2022-08-18T05:25:18.328Z,15.57
2022-08-18T05:27:46.550Z,14.68
2022-08-18T05:30:15.249Z,14.52
2022-08-18T05:32:49.692Z,15.18
2022-08-18T05:35:27.399Z,14.10
2022-08-18T05:38:18.212Z,14.45
2022-08-18T05:40:47.737Z,13.48
2022-08-18T05:43:18.161Z,12.63
2022-08-18T05:45:46.846Z,11.95
2022-08-18T05:48:15.857Z,11.35
2022-08-18T05:50:45.473Z,12.10
2022-08-18T05:53:18.421Z,10.20
2022-08-18T05:56:17.792Z,10.55
2022-08-18T05:58:52.225Z,10.63
2022-08-18T06:01:25.919Z,9.10
2022-08-18T06:04:04.146Z,8.70
2022-08-18T06:06:36.681Z,9.70
2022-08-18T06:09:13.271Z,7.78
2022-08-18T06:11:41.484Z,7.13
2022-08-18T06:14:09.734Z,7.30
2022-08-18T06:16:56.043Z,6.13
2022-08-18T06:19:41.465Z,5.82
2022-08-18T06:22:24.436Z,6.50
2022-08-18T06:25:05.751Z,5.82
2022-08-18T06:27:43.202Z,5.75
2022-08-18T06:30:18.815Z,6.07
2022-08-18T06:33:11.967Z,6.45
2022-08-18T06:35:46.550Z,5.80
2022-08-18T06:38:46.029Z,7.22
2022-08-18T06:41:41.603Z,5.82
2022-08-18T06:44:15.142Z,7.25
2022-08-18T06:46:49.486Z,6.45
2022-08-18T06:49:35.959Z,7.10
2022-08-18T06:52:21.132Z,6.78
2022-08-18T06:54:51.849Z,6.90
2022-08-18T06:57:34.674Z,7.10
2022-08-18T07:00:24.965Z,6.38
2022-08-18T07:02:57.050Z,6.83
2022-08-18T07:05:28.320Z,6.97
2022-08-18T07:08:11.507Z,7.47
2022-08-18T07:10:43.870Z,7.40
2022-08-18T07:13:26.602Z,7.70
2022-08-18T07:15:57.011Z,8.48
2022-08-18T07:18:29.954Z,7.18
2022-08-18T07:21:01.935Z,8.20
2022-08-18T07:23:34.989Z,7.88
2022-08-18T07:26:19.231Z,8.02
2022-08-18T07:28:50.474Z,6.75
2022-08-18T07:31:36.158Z,6.60
2022-08-18T07:34:12.473Z,6.22
2022-08-18T07:36:48.661Z,6.00
2022-08-18T07:39:25.067Z,5.80
2022-08-18T07:42:03.170Z,5.57
2022-08-18T07:44:43.871Z,5.75
2022-08-18T07:47:20.494Z,4.78
2022-08-18T07:50:16.461Z,6.15
2022-08-18T07:52:47.410Z,5.05
2022-08-18T07:55:28.956Z,5.95
2022-08-18T07:58:12.443Z,5.78
2022-08-18T08:00:58.850Z,5.68
2022-08-18T08:03:45.985Z,6.70
2022-08-18T08:06:21.977Z,6.57
2022-08-18T08:09:02.134Z,6.57
2022-08-18T08:11:45.743Z,5.53
2022-08-18T08:14:37.309Z,6.03
2022-08-18T08:17:17.285Z,6.13
2022-08-18T08:20:32.794Z,6.67
2022-08-18T08:23:17.783Z,6.00
2022-08-18T08:26:00.696Z,6.05
2022-08-18T08:28:43.104Z,6.40
2022-08-18T08:31:36.775Z,6.22
2022-08-18T08:34:15.383Z,5.47
2022-08-18T08:36:47.591Z,5.95
2022-08-18T08:39:38.670Z,4.68
2022-08-18T08:42:30.464Z,5.82
2022-08-18T08:45:08.663Z,6.10
2022-08-18T08:47:45.411Z,6.05
2022-08-18T08:50:18.709Z,5.50
2022-08-18T08:52:51.615Z,6.25
2022-08-18T08:55:25.697Z,5.50
2022-08-18T08:58:04.524Z,5.85
2022-08-18T09:00:33.199Z,5.88
2022-08-18T09:03:30.715Z,5.82
2022-08-18T09:06:21.089Z,5.93
2022-08-18T09:09:28.143Z,5.72
2022-08-18T09:12:40.457Z,5.38
2022-08-18T09:15:30.844Z,4.88
2022-08-18T09:18:35.506Z,5.78
2022-08-18T09:21:20.737Z,5.15
2022-08-18T09:23:53.275Z,5.15
2022-08-18T09:26:40.521Z,5.57
2022-08-18T09:29:23.339Z,5.18
2022-08-18T09:32:50.961Z,5.75
2022-08-18T09:35:45.839Z,5.90
2022-08-18T09:41:31.503Z,5.55
2022-08-18T09:44:11.987Z,6.57
2022-08-18T09:47:00.028Z,6.23
2022-08-18T09:49:53.576Z,6.40
2022-08-18T09:53:04.464Z,6.40
2022-08-18T09:56:01.326Z,6.10
2022-08-18T09:59:02.097Z,7.20
2022-08-18T10:01:39.858Z,6.68
2022-08-18T10:04:32.380Z,6.40
2022-08-18T10:07:21.237Z,6.85
2022-08-18T10:10:58.858Z,6.55
2022-08-18T10:13:09.961Z,6.65
2022-08-18T10:15:58.156Z,6.18
2022-08-18T10:19:02.158Z,6.20
2022-08-18T10:22:12.743Z,5.75
2022-08-18T10:24:56.237Z,6.00
2022-08-18T10:27:50.962Z,6.03
2022-08-18T10:31:06.198Z,6.82
2022-08-18T10:34:16.578Z,6.32
2022-08-18T10:36:52.988Z,7.60
2022-08-18T10:39:24.808Z,7.82
2022-08-18T10:42:08.441Z,9.30
2022-08-18T10:44:46.550Z,9.55
2022-08-18T10:47:25.454Z,9.23
2022-08-18T10:50:08.371Z,9.10
2022-08-18T10:53:24.118Z,9.25
2022-08-18T10:55:55.269Z,9.10
2022-08-18T10:59:04.357Z,8.48
2022-08-18T11:02:05.580Z,9.32
2022-08-18T11:04:39.037Z,8.63
2022-08-18T11:07:12.680Z,9.68
2022-08-18T11:12:57.984Z,10.00
2022-08-18T11:15:38.809Z,10.25
2022-08-18T11:18:29.055Z,10.30
2022-08-18T11:21:32.772Z,9.90
2022-08-18T11:24:11.201Z,9.55
2022-08-18T11:26:45.471Z,9.10
2022-08-18T11:29:28.771Z,8.68
2022-08-18T11:32:04.893Z,9.45
2022-08-18T11:34:41.300Z,9.88
2022-08-18T11:37:49.080Z,9.00
2022-08-18T11:43:29.546Z,8.18
2022-08-18T11:46:02.077Z,10.90
2022-08-18T11:48:52.179Z,10.70
2022-08-18T11:51:25.431Z,12.98
2022-08-18T11:54:00.086Z,14.05
2022-08-18T11:56:36.090Z,17.40
2022-08-18T11:59:09.328Z,17.70
2022-08-18T12:01:51.472Z,12.68
2022-08-18T12:04:30.090Z,11.23
2022-08-18T12:07:04.751Z,13.23
2022-08-18T12:12:31.982Z,10.50
2022-08-18T12:15:13.608Z,9.48
2022-08-18T12:17:52.545Z,9.48
2022-08-18T12:20:23.957Z,8.55
2022-08-18T12:22:56.907Z,8.35
2022-08-18T12:25:25.816Z,7.53
2022-08-18T12:27:54.804Z,7.22
2022-08-18T12:30:23.431Z,7.35
2022-08-18T12:32:56.257Z,5.88
2022-08-18T12:35:35.632Z,5.18
2022-08-18T12:38:12.801Z,6.43
2022-08-18T12:40:44.128Z,8.25
2022-08-18T12:43:13.037Z,7.97
2022-08-18T12:45:42.486Z,8.75
2022-08-18T12:48:11.907Z,8.25
2022-08-18T12:50:53.987Z,6.53
2022-08-18T12:53:29.583Z,9.10
2022-08-18T12:56:10.713Z,7.38
2022-08-18T12:58:40.468Z,8.45
2022-08-18T13:01:09.063Z,8.23
2022-08-18T13:03:38.623Z,7.63
2022-08-18T13:06:12.969Z,6.63
2022-08-18T13:08:48.004Z,6.05
2022-08-18T13:11:23.670Z,7.25
2022-08-18T13:13:56.529Z,6.97
2022-08-18T13:16:30.770Z,7.55
2022-08-18T13:19:16.169Z,5.88
2022-08-18T13:21:45.790Z,6.10
2022-08-18T13:24:13.969Z,6.53
2022-08-18T13:29:18.296Z,6.20
2022-08-18T13:31:57.378Z,5.90
2022-08-18T13:34:29.906Z,6.53
2022-08-18T13:36:59.830Z,8.75
2022-08-18T13:39:31.251Z,8.55
2022-08-18T13:42:21.442Z,12.10
2022-08-18T13:44:52.920Z,9.60
2022-08-18T13:47:22.156Z,9.98
2022-08-18T13:49:52.652Z,15.57
2022-08-18T13:52:41.207Z,14.90
2022-08-18T13:55:16.757Z,14.75
2022-08-18T13:57:49.800Z,13.70
2022-08-18T14:00:29.799Z,18.80
2022-08-18T14:05:36.563Z,17.70
2022-08-18T14:08:21.506Z,19.23
2022-08-18T14:10:54.475Z,16.92
2022-08-18T14:13:24.596Z,17.02
2022-08-18T14:15:54.889Z,17.67
2022-08-18T14:18:29.266Z,18.48
2022-08-18T14:21:23.119Z,15.73
2022-08-18T14:24:14.222Z,24.73
2022-08-18T14:26:50.278Z,26.63
2022-08-18T14:29:46.755Z,26.92
2022-08-18T14:32:08.662Z,27.25
2022-08-18T14:34:40.141Z,33.88
2022-08-18T14:37:19.516Z,20.25
2022-08-18T14:39:53.850Z,19.08
2022-08-18T14:42:41.346Z,22.08
2022-08-18T14:45:26.560Z,11.95
2022-08-18T14:48:07.626Z,26.23
2022-08-18T14:50:40.117Z,11.13
2022-08-18T14:53:14.358Z,8.73
2022-08-18T14:55:44.724Z,10.98
2022-08-18T14:58:18.706Z,12.25
2022-08-18T15:00:53.457Z,18.75
2022-08-18T15:03:28.407Z,8.10
2022-08-18T15:06:04.866Z,17.70
2022-08-18T15:08:35.408Z,23.25
2022-08-18T15:11:11.613Z,12.07
2022-08-18T15:13:43.458Z,21.45
2022-08-18T15:16:14.448Z,25.33
2022-08-18T15:18:43.636Z,21.35
2022-08-18T15:21:35.374Z,13.38
2022-08-18T15:24:25.747Z,7.38
2022-08-18T15:27:05.698Z,6.28
2022-08-18T15:29:35.746Z,7.25
2022-08-18T15:32:05.630Z,10.70
2022-08-18T15:34:46.749Z,9.77
2022-08-18T15:37:19.729Z,7.65
2022-08-18T15:39:51.969Z,9.73
2022-08-18T15:42:25.677Z,6.22
2022-08-18T15:44:56.763Z,7.85
2022-08-18T15:47:25.430Z,7.68
2022-08-18T15:49:54.970Z,6.85
2022-08-18T15:52:24.625Z,9.85
2022-08-18T15:54:58.400Z,10.75
2022-08-18T15:57:39.351Z,5.05
2022-08-18T16:00:12.271Z,10.73
2022-08-18T16:02:44.762Z,9.93
2022-08-18T16:05:18.073Z,5.55
2022-08-18T16:07:47.540Z,4.20
2022-08-18T16:10:18.495Z,8.05
2022-08-18T16:12:49.133Z,7.10
2022-08-18T16:17:51.533Z,3.53
2022-08-18T16:20:21.273Z,5.40
2022-08-18T16:22:49.627Z,12.10
2022-08-18T16:25:17.945Z,9.98
2022-08-18T16:27:48.010Z,9.43
2022-08-18T16:30:20.460Z,9.57
2022-08-18T16:32:49.475Z,11.45
2022-08-18T16:35:19.757Z,8.45
2022-08-18T16:37:49.193Z,7.70
2022-08-18T16:40:19.634Z,6.18
2022-08-18T16:42:53.935Z,7.40
2022-08-18T16:45:22.721Z,14.48
2022-08-18T16:47:51.108Z,12.85
2022-08-18T16:50:19.645Z,13.43
2022-08-18T16:52:47.967Z,11.40
2022-08-18T16:55:16.299Z,12.57
2022-08-18T16:58:03.146Z,12.57
2022-08-18T17:00:55.252Z,10.43
2022-08-18T17:03:41.895Z,8.07
2022-08-18T17:06:13.846Z,11.45
2022-08-18T17:08:43.941Z,16.40
2022-08-18T17:11:16.140Z,15.23
2022-08-18T17:13:46.077Z,15.13
2022-08-18T17:16:18.314Z,13.63
2022-08-18T17:18:47.107Z,17.48
2022-08-18T17:21:20.870Z,17.58
2022-08-18T17:23:51.595Z,19.98
2022-08-18T17:26:30.952Z,18.58
2022-08-18T17:29:07.960Z,14.13
2022-08-18T17:31:37.911Z,18.75
2022-08-18T17:34:09.994Z,18.45
2022-08-18T17:36:52.856Z,17.63
2022-08-18T17:39:27.165Z,12.13
2022-08-18T17:42:13.219Z,14.93
2022-08-18T17:44:52.026Z,15.77
2022-08-18T17:47:28.951Z,17.80
2022-08-18T17:50:26.806Z,19.02
2022-08-18T17:53:06.117Z,17.65
2022-08-18T17:55:42.812Z,16.92
2022-08-18T17:58:18.728Z,20.23
2022-08-18T18:00:47.055Z,34.55
2022-08-18T18:03:16.717Z,40.88
2022-08-18T18:05:51.664Z,25.77
2022-08-18T18:08:20.714Z,17.02
2022-08-18T18:11:07.685Z,14.45
2022-08-18T18:13:36.089Z,13.05
2022-08-18T18:16:26.871Z,16.00
2022-08-18T18:22:00.913Z,10.98
2022-08-18T18:24:30.756Z,11.15
2022-08-18T18:26:59.477Z,10.02
2022-08-18T18:29:35.678Z,10.10
2022-08-18T18:32:08.567Z,9.55
2022-08-18T18:34:46.574Z,11.07
2022-08-18T18:37:29.052Z,12.35
2022-08-18T18:40:00.631Z,10.90
2022-08-18T18:42:31.601Z,10.02
2022-08-18T18:45:02.714Z,9.57
2022-08-18T18:47:57.197Z,8.68
2022-08-18T18:50:38.974Z,7.57
2022-08-18T18:53:31.636Z,7.60
2022-08-18T18:56:13.186Z,6.50
2022-08-18T18:58:54.464Z,6.80
2022-08-18T19:01:35.862Z,6.90
2022-08-18T19:04:11.133Z,5.70
2022-08-18T19:06:48.742Z,5.15
2022-08-18T19:09:24.349Z,5.38
2022-08-18T19:12:09.739Z,5.55
2022-08-18T19:14:43.789Z,5.18
2022-08-18T19:17:39.741Z,4.63
2022-08-18T19:20:14.402Z,5.28
2022-08-18T19:22:50.487Z,5.10
2022-08-18T19:25:24.828Z,4.68
2022-08-18T19:28:14.125Z,4.60
2022-08-18T19:30:48.166Z,4.95
2022-08-18T19:33:25.837Z,4.50
2022-08-18T19:36:02.766Z,5.07
2022-08-18T19:38:38.311Z,4.90
2022-08-18T19:41:19.932Z,4.45
2022-08-18T19:43:57.296Z,4.38
2022-08-18T19:46:34.700Z,4.82
2022-08-18T19:49:12.123Z,5.10
2022-08-18T19:51:42.767Z,5.40
2022-08-18T19:54:32.568Z,5.22
2022-08-18T19:57:16.886Z,6.07
2022-08-18T20:00:13.927Z,6.63
2022-08-18T20:03:06.160Z,7.22
2022-08-18T20:05:51.486Z,8.07
2022-08-18T20:09:03.666Z,13.80
2022-08-18T20:12:13.017Z,9.98
2022-08-18T20:14:43.647Z,7.13
2022-08-18T20:17:19.434Z,6.72
2022-08-18T20:20:18.253Z,7.22
2022-08-18T20:22:48.632Z,8.18
2022-08-18T20:25:43.805Z,6.40
2022-08-18T20:28:35.326Z,7.25
2022-08-18T20:31:16.634Z,6.88
2022-08-18T20:33:48.263Z,6.93
2022-08-18T20:36:30.554Z,6.25
2022-08-18T20:39:01.149Z,6.68
2022-08-18T20:41:42.071Z,6.40
2022-08-18T20:47:30.677Z,4.55
2022-08-18T20:50:38.098Z,11.57
2022-08-18T20:53:15.588Z,9.32
2022-08-18T20:55:57.221Z,7.03
2022-08-18T20:58:32.607Z,5.72
2022-08-18T21:01:01.890Z,6.53
2022-08-18T21:03:42.029Z,7.15
2022-08-18T21:06:13.377Z,6.43
2022-08-18T21:08:51.089Z,7.53
2022-08-18T21:11:31.847Z,8.35
2022-08-18T21:14:04.021Z,7.65
2022-08-18T21:16:45.007Z,10.13
2022-08-18T21:19:23.553Z,8.88
2022-08-18T21:21:56.626Z,7.65
2022-08-18T21:24:31.956Z,6.65
2022-08-18T21:27:05.128Z,6.90
2022-08-18T21:29:46.928Z,6.90
2022-08-18T21:32:22.008Z,7.93
2022-08-18T21:34:52.702Z,6.97
2022-08-18T21:37:21.962Z,6.45
2022-08-18T21:39:54.460Z,6.65
2022-08-18T21:42:28.903Z,5.80
2022-08-18T21:45:00.858Z,5.00
2022-08-18T21:47:32.639Z,4.93
2022-08-18T21:50:10.469Z,4.28
2022-08-18T21:52:51.620Z,3.85
2022-08-18T21:55:27.989Z,4.13
2022-08-18T21:58:19.466Z,4.43
2022-08-18T22:01:14.567Z,4.28
2022-08-18T22:03:59.596Z,3.97
2022-08-18T22:06:38.119Z,3.42
2022-08-18T22:09:35.646Z,3.60
2022-08-18T22:12:48.052Z,4.80
2022-08-18T22:15:20.322Z,4.05
2022-08-18T22:17:56.292Z,3.63
2022-08-18T22:20:47.648Z,3.80
2022-08-18T22:23:51.012Z,3.80
2022-08-18T22:26:25.431Z,4.18
2022-08-18T22:29:03.898Z,3.95
2022-08-18T22:31:34.548Z,3.83
2022-08-18T22:34:06.343Z,3.95
2022-08-18T22:36:39.042Z,3.97
2022-08-18T22:39:13.266Z,4.68
2022-08-18T22:41:43.798Z,5.07
2022-08-18T22:44:12.115Z,4.70
2022-08-18T22:46:40.395Z,4.47
2022-08-18T22:49:08.711Z,5.25
2022-08-18T22:51:37.365Z,4.85
2022-08-18T22:54:10.900Z,5.63
2022-08-18T22:56:39.505Z,5.43
2022-08-18T22:59:22.546Z,5.18
2022-08-18T23:01:52.515Z,5.25
2022-08-18T23:04:25.456Z,5.70
2022-08-18T23:06:54.508Z,5.07
2022-08-18T23:09:27.163Z,5.70
2022-08-18T23:12:00.046Z,5.20
2022-08-18T23:14:32.840Z,4.90
2022-08-18T23:17:02.785Z,5.20
2022-08-18T23:19:32.497Z,4.93
2022-08-18T23:22:01.532Z,5.97
2022-08-18T23:24:32.147Z,5.18
2022-08-18T23:27:00.420Z,5.40
2022-08-18T23:29:29.075Z,6.38
2022-08-18T23:31:57.252Z,5.70
2022-08-18T23:34:27.287Z,6.35
2022-08-18T23:36:58.638Z,3.63
2022-08-18T23:39:27.352Z,6.03
2022-08-18T23:41:57.235Z,5.05
2022-08-18T23:44:27.657Z,5.90
2022-08-18T23:46:58.041Z,5.97
2022-08-18T23:49:29.109Z,6.40
2022-08-18T23:51:59.136Z,6.68
2022-08-18T23:54:31.182Z,6.38
2022-08-18T23:57:01.704Z,7.20
2022-08-18T23:59:30.689Z,7.18
